Saturday, August 18, 2018, 3:49 PM EDT
Back to Local

KGNR, Greenville

Location: Greenville, ME, United States Lat: 45.467
Local Time: 3:49 PM EDT (19:49 GMT) Lon: -69.583
Time Zone: US/Eastern Elev: 1400 ft

Show me the last for .
Show Decoded

2018-08-18 14:56 METAR KGNR 181856Z AUTO 01012G19KT 20/14 A2985 RMK AO1 SLP106 T02000144 =
2018-08-18 13:56 METAR KGNR 181756Z AUTO 02009G17KT 17/15 A2985 RMK AO1 SLP107 60001 T01720150
                 10178 20161 52008 =
2018-08-18 12:56 METAR KGNR 181656Z AUTO 36009KT 16/15 A2984 RMK AO1 SLP104 T01610150 =
2018-08-18 11:56 METAR KGNR 181556Z AUTO 01011G16KT 17/16 A2983 RMK AO1 SLP102 T01720156 =
2018-08-18 10:56 METAR KGNR 181456Z AUTO 35011KT 17/16 A2982 RMK AO1 SLP098 60001 T01670156 53010
                 =
2018-08-18 09:56 METAR KGNR 181356Z AUTO 36008G16KT 17/17 A2980 RMK AO1 SLP091 T01720167 =
2018-08-18 08:56 METAR KGNR 181256Z AUTO 01011KT 17/17 A2979 RMK AO1 SLP089 P0001 T01720172 =
2018-08-18 07:56 METAR KGNR 181156Z AUTO 00000KT 17/17 A2979 RMK AO1 SLP087 70054 T01720172 10172
                 20161 53003 =
2018-08-18 06:56 METAR KGNR 181056Z AUTO 00000KT 17/17 A2979 RMK AO1 SLP084 T01720172 =
2018-08-18 05:56 METAR KGNR 180956Z AUTO 00000KT 17/17 A2978 RMK AO1 SLP082 T01670167 =
2018-08-18 04:56 METAR KGNR 180856Z AUTO 14006KT 17/17 A2978 RMK AO1 SLP082 T01670167 56012 =
2018-08-18 03:56 METAR KGNR 180756Z AUTO VRB05KT 17/17 A2979 RMK AO1 SLP083 T01670167 =
2018-08-18 02:56 METAR KGNR 180656Z AUTO 14006KT 17/17 A2980 RMK AO1 SLP087 T01670167 =
2018-08-18 01:56 METAR KGNR 180556Z AUTO VRB05KT 16/16 A2982 RMK AO1 SLP095 P0009 60050 T01610161
                 10178 20156 58028 =
2018-08-18 00:56 METAR KGNR 180456Z AUTO 00000KT 17/16 A2986 RMK AO1 SLP110 P0030 T01670161
                 402330117 =
2018-08-17 23:56 METAR KGNR 180356Z AUTO VRB03KT 16/16 A2989 RMK AO1 SLP121 P0001 T01560156 =
2018-08-17 22:56 METAR KGNR 180256Z AUTO 15006KT 16/16 A2991 RMK AO1 SLP126 P0003 60010 T01610161
                 58013 =
2018-08-17 21:56 METAR KGNR 180156Z AUTO 00000KT 16/16 A2994 RMK AO1 SLP137 P0004 T01610161 =
2018-08-17 20:56 METAR KGNR 180056Z AUTO 15004KT 17/17 A2995 RMK AO1 SLP140 P0003 T01670167 =
2018-08-17 19:56 METAR KGNR 172356Z AUTO VRB05KT 18/17 A2995 RMK AO1 SLP141 P0004 60004 T01780167
                 10233 20178 58012 =
2018-08-17 18:56 METAR KGNR 172256Z AUTO VRB05KT 19/16 A2996 RMK AO1 SLP145 T01940161 =
2018-08-17 17:56 METAR KGNR 172156Z AUTO 19005KT 21/15 A2998 RMK AO1 SLP151 T02060150 =
2018-08-17 16:56 METAR KGNR 172056Z AUTO VRB04KT 22/14 A2998 RMK AO1 SLP154 T02170144 56019 =
2018-08-17 15:56 METAR KGNR 171956Z AUTO 19005KT 23/13 A3000 RMK AO1 SLP158 T02280133 =

Support USWX by starting your Amazon purchase here.